sensor_id;sensor_type;location;lat;lon;timestamp;pressure;altitude;pressure_sealevel;temperature;humidity
73024;BME280;72676;47.526;8.538;2023-12-28T00:01:42;96752.91;;;7.47;56.62
73024;BME280;72676;47.526;8.538;2023-12-28T00:04:09;96751.25;;;7.46;56.77
73024;BME280;72676;47.526;8.538;2023-12-28T00:06:35;96756.00;;;7.64;56.32
73024;BME280;72676;47.526;8.538;2023-12-28T00:09:02;96754.25;;;7.52;56.02
73024;BME280;72676;47.526;8.538;2023-12-28T00:11:37;96753.97;;;7.44;55.42
73024;BME280;72676;47.526;8.538;2023-12-28T00:14:03;96762.31;;;7.37;56.80
73024;BME280;72676;47.526;8.538;2023-12-28T00:16:33;96755.53;;;7.34;56.56
73024;BME280;72676;47.526;8.538;2023-12-28T00:19:00;96759.09;;;7.33;56.58
73024;BME280;72676;47.526;8.538;2023-12-28T00:21:29;96762.44;;;7.23;57.08
73024;BME280;72676;47.526;8.538;2023-12-28T00:23:56;96759.53;;;7.27;57.42
73024;BME280;72676;47.526;8.538;2023-12-28T00:26:23;96754.19;;;7.29;56.96
73024;BME280;72676;47.526;8.538;2023-12-28T00:28:49;96750.44;;;7.33;57.21
73024;BME280;72676;47.526;8.538;2023-12-28T00:31:16;96759.84;;;7.35;56.84
73024;BME280;72676;47.526;8.538;2023-12-28T00:33:42;96766.94;;;7.57;56.42
73024;BME280;72676;47.526;8.538;2023-12-28T00:36:09;96760.19;;;7.67;56.62
73024;BME280;72676;47.526;8.538;2023-12-28T00:38:36;96761.06;;;7.78;56.29
73024;BME280;72676;47.526;8.538;2023-12-28T00:41:02;96753.69;;;7.72;56.07
73024;BME280;72676;47.526;8.538;2023-12-28T00:43:28;96754.78;;;7.45;56.46
73024;BME280;72676;47.526;8.538;2023-12-28T00:45:55;96759.41;;;7.29;56.85
73024;BME280;72676;47.526;8.538;2023-12-28T00:48:22;96756.59;;;7.32;57.18
73024;BME280;72676;47.526;8.538;2023-12-28T00:50:49;96760.03;;;7.32;57.33
73024;BME280;72676;47.526;8.538;2023-12-28T00:53:15;96760.84;;;7.45;57.00
73024;BME280;72676;47.526;8.538;2023-12-28T00:55:42;96762.31;;;7.37;56.64
73024;BME280;72676;47.526;8.538;2023-12-28T00:58:08;96764.91;;;7.37;56.86
73024;BME280;72676;47.526;8.538;2023-12-28T01:00:35;96762.31;;;7.37;57.36
73024;BME280;72676;47.526;8.538;2023-12-28T01:03:01;96758.53;;;7.53;57.11
73024;BME280;72676;47.526;8.538;2023-12-28T01:05:28;96766.47;;;7.52;56.98
73024;BME280;72676;47.526;8.538;2023-12-28T01:07:55;96766.25;;;7.55;56.48
73024;BME280;72676;47.526;8.538;2023-12-28T01:10:22;96768.41;;;7.61;56.71
73024;BME280;72676;47.526;8.538;2023-12-28T01:12:48;96761.09;;;7.66;56.63
73024;BME280;72676;47.526;8.538;2023-12-28T01:15:15;96769.13;;;7.63;56.41
73024;BME280;72676;47.526;8.538;2023-12-28T01:17:44;96775.06;;;7.65;56.29
73024;BME280;72676;47.526;8.538;2023-12-28T01:20:11;96772.81;;;7.48;56.91
73024;BME280;72676;47.526;8.538;2023-12-28T01:22:37;96778.81;;;7.25;57.59
73024;BME280;72676;47.526;8.538;2023-12-28T01:25:04;96781.81;;;7.19;57.97
73024;BME280;72676;47.526;8.538;2023-12-28T01:27:30;96790.56;;;6.93;58.57
73024;BME280;72676;47.526;8.538;2023-12-28T01:29:57;96777.66;;;6.79;58.97
73024;BME280;72676;47.526;8.538;2023-12-28T01:32:24;96790.28;;;6.85;59.11
73024;BME280;72676;47.526;8.538;2023-12-28T01:34:50;96786.31;;;6.92;59.14
73024;BME280;72676;47.526;8.538;2023-12-28T01:37:17;96791.41;;;6.81;59.20
73024;BME280;72676;47.526;8.538;2023-12-28T01:39:43;96796.91;;;6.76;59.38
73024;BME280;72676;47.526;8.538;2023-12-28T01:42:10;96794.84;;;6.69;59.58
73024;BME280;72676;47.526;8.538;2023-12-28T01:44:36;96811.25;;;6.69;59.71
73024;BME280;72676;47.526;8.538;2023-12-28T01:47:03;96809.41;;;6.84;59.48
73024;BME280;72676;47.526;8.538;2023-12-28T01:49:30;96807.75;;;6.95;58.74
73024;BME280;72676;47.526;8.538;2023-12-28T01:51:57;96820.78;;;6.95;59.39
73024;BME280;72676;47.526;8.538;2023-12-28T01:54:23;96816.75;;;7.04;58.91
73024;BME280;72676;47.526;8.538;2023-12-28T01:56:50;96806.31;;;7.04;59.38
73024;BME280;72676;47.526;8.538;2023-12-28T01:59:16;96806.50;;;7.01;59.29
73024;BME280;72676;47.526;8.538;2023-12-28T02:01:44;96820.69;;;7.09;59.04
73024;BME280;72676;47.526;8.538;2023-12-28T02:04:12;96823.50;;;7.06;59.44
73024;BME280;72676;47.526;8.538;2023-12-28T02:06:39;96813.69;;;7.10;59.56
73024;BME280;72676;47.526;8.538;2023-12-28T02:09:05;96820.47;;;7.25;59.09
73024;BME280;72676;47.526;8.538;2023-12-28T02:11:32;96822.78;;;7.17;59.09
73024;BME280;72676;47.526;8.538;2023-12-28T02:13:58;96818.19;;;7.08;59.35
73024;BME280;72676;47.526;8.538;2023-12-28T02:16:29;96822.88;;;7.28;59.34
73024;BME280;72676;47.526;8.538;2023-12-28T02:19:00;96816.53;;;7.44;58.76
73024;BME280;72676;47.526;8.538;2023-12-28T02:21:31;96821.50;;;7.47;58.43
73024;BME280;72676;47.526;8.538;2023-12-28T02:23:57;96815.75;;;7.55;57.92
73024;BME280;72676;47.526;8.538;2023-12-28T02:26:24;96815.19;;;7.75;57.40
73024;BME280;72676;47.526;8.538;2023-12-28T02:28:50;96807.56;;;7.84;56.88
73024;BME280;72676;47.526;8.538;2023-12-28T02:31:21;96816.00;;;7.88;56.90
73024;BME280;72676;47.526;8.538;2023-12-28T02:33:59;96836.41;;;7.94;56.99
73024;BME280;72676;47.526;8.538;2023-12-28T02:36:29;96829.72;;;8.02;56.86
73024;BME280;72676;47.526;8.538;2023-12-28T02:38:58;96835.97;;;8.12;56.57
73024;BME280;72676;47.526;8.538;2023-12-28T02:41:26;96842.72;;;7.79;56.86
73024;BME280;72676;47.526;8.538;2023-12-28T02:43:52;96853.34;;;7.76;57.17
73024;BME280;72676;47.526;8.538;2023-12-28T02:46:19;96846.41;;;7.64;57.59
73024;BME280;72676;47.526;8.538;2023-12-28T02:48:45;96852.13;;;7.69;57.87
73024;BME280;72676;47.526;8.538;2023-12-28T02:51:12;96857.34;;;7.69;58.03
73024;BME280;72676;47.526;8.538;2023-12-28T02:53:39;96866.53;;;7.49;57.87
73024;BME280;72676;47.526;8.538;2023-12-28T02:56:05;96856.53;;;7.31;58.49
73024;BME280;72676;47.526;8.538;2023-12-28T02:58:33;96854.84;;;7.30;58.83
73024;BME280;72676;47.526;8.538;2023-12-28T03:01:00;96843.72;;;7.40;58.36
73024;BME280;72676;47.526;8.538;2023-12-28T03:03:27;96841.94;;;7.53;57.80
73024;BME280;72676;47.526;8.538;2023-12-28T03:05:53;96836.50;;;7.56;57.71
73024;BME280;72676;47.526;8.538;2023-12-28T03:08:20;96831.31;;;7.44;58.75
73024;BME280;72676;47.526;8.538;2023-12-28T03:10:46;96842.66;;;7.43;58.74
73024;BME280;72676;47.526;8.538;2023-12-28T03:13:13;96837.38;;;7.44;58.76
73024;BME280;72676;47.526;8.538;2023-12-28T03:15:39;96832.97;;;7.45;58.37
73024;BME280;72676;47.526;8.538;2023-12-28T03:18:06;96831.84;;;7.49;58.81
73024;BME280;72676;47.526;8.538;2023-12-28T03:20:33;96832.75;;;7.48;58.59
73024;BME280;72676;47.526;8.538;2023-12-28T03:22:59;96838.19;;;7.45;59.03
73024;BME280;72676;47.526;8.538;2023-12-28T03:25:25;96833.19;;;7.54;59.18
73024;BME280;72676;47.526;8.538;2023-12-28T03:27:52;96827.53;;;7.48;58.73
73024;BME280;72676;47.526;8.538;2023-12-28T03:30:18;96841.41;;;7.36;59.52
73024;BME280;72676;47.526;8.538;2023-12-28T03:32:45;96843.00;;;7.38;59.87
73024;BME280;72676;47.526;8.538;2023-12-28T03:35:12;96844.25;;;7.33;60.11
73024;BME280;72676;47.526;8.538;2023-12-28T03:37:38;96844.25;;;7.33;59.82
73024;BME280;72676;47.526;8.538;2023-12-28T03:40:05;96842.47;;;7.08;61.10
73024;BME280;72676;47.526;8.538;2023-12-28T03:42:32;96847.88;;;7.18;60.42
73024;BME280;72676;47.526;8.538;2023-12-28T03:44:58;96857.16;;;7.34;59.87
73024;BME280;72676;47.526;8.538;2023-12-28T03:47:25;96866.75;;;7.34;60.49
73024;BME280;72676;47.526;8.538;2023-12-28T03:49:51;96863.44;;;7.32;59.66
73024;BME280;72676;47.526;8.538;2023-12-28T03:52:18;96860.28;;;7.27;59.92
73024;BME280;72676;47.526;8.538;2023-12-28T03:54:44;96862.69;;;7.17;60.64
73024;BME280;72676;47.526;8.538;2023-12-28T03:57:11;96853.50;;;7.37;60.11
73024;BME280;72676;47.526;8.538;2023-12-28T03:59:39;96849.97;;;7.38;60.23
73024;BME280;72676;47.526;8.538;2023-12-28T04:02:05;96846.31;;;7.53;59.61
73024;BME280;72676;47.526;8.538;2023-12-28T04:04:32;96849.94;;;7.50;59.37
73024;BME280;72676;47.526;8.538;2023-12-28T04:06:58;96846.84;;;7.58;59.21
73024;BME280;72676;47.526;8.538;2023-12-28T04:09:25;96859.56;;;7.62;59.64
73024;BME280;72676;47.526;8.538;2023-12-28T04:11:51;96851.75;;;7.62;59.31
73024;BME280;72676;47.526;8.538;2023-12-28T04:14:18;96861.72;;;7.68;59.17
73024;BME280;72676;47.526;8.538;2023-12-28T04:16:45;96853.19;;;7.66;59.01
73024;BME280;72676;47.526;8.538;2023-12-28T04:19:11;96850.25;;;7.71;59.48
73024;BME280;72676;47.526;8.538;2023-12-28T04:21:38;96858.78;;;7.73;59.56
73024;BME280;72676;47.526;8.538;2023-12-28T04:24:05;96854.34;;;7.62;59.76
73024;BME280;72676;47.526;8.538;2023-12-28T04:26:31;96850.19;;;7.35;60.27
73024;BME280;72676;47.526;8.538;2023-12-28T04:29:00;96854.66;;;7.20;60.72
73024;BME280;72676;47.526;8.538;2023-12-28T04:31:26;96860.84;;;6.68;62.14
73024;BME280;72676;47.526;8.538;2023-12-28T04:33:53;96857.66;;;6.50;62.92
73024;BME280;72676;47.526;8.538;2023-12-28T04:36:20;96849.16;;;6.61;62.94
73024;BME280;72676;47.526;8.538;2023-12-28T04:38:46;96850.34;;;6.43;63.27
73024;BME280;72676;47.526;8.538;2023-12-28T04:41:13;96845.34;;;6.40;63.23
73024;BME280;72676;47.526;8.538;2023-12-28T04:43:39;96844.06;;;6.33;63.92
73024;BME280;72676;47.526;8.538;2023-12-28T04:46:06;96834.47;;;6.21;63.93
73024;BME280;72676;47.526;8.538;2023-12-28T04:48:32;96829.84;;;6.12;64.14
73024;BME280;72676;47.526;8.538;2023-12-28T04:51:02;96837.97;;;6.20;63.59
73024;BME280;72676;47.526;8.538;2023-12-28T04:53:29;96837.81;;;6.09;63.49
73024;BME280;72676;47.526;8.538;2023-12-28T04:55:55;96836.44;;;6.03;64.05
73024;BME280;72676;47.526;8.538;2023-12-28T04:58:22;96840.25;;;6.12;64.21
73024;BME280;72676;47.526;8.538;2023-12-28T05:00:48;96840.84;;;6.15;63.67
73024;BME280;72676;47.526;8.538;2023-12-28T05:03:15;96851.56;;;6.11;63.58
73024;BME280;72676;47.526;8.538;2023-12-28T05:05:41;96857.53;;;6.13;63.99
73024;BME280;72676;47.526;8.538;2023-12-28T05:08:08;96870.81;;;6.08;64.13
73024;BME280;72676;47.526;8.538;2023-12-28T05:10:34;96870.91;;;5.93;64.96
73024;BME280;72676;47.526;8.538;2023-12-28T05:13:01;96869.81;;;5.83;64.72
73024;BME280;72676;47.526;8.538;2023-12-28T05:15:28;96862.75;;;5.71;65.54
73024;BME280;72676;47.526;8.538;2023-12-28T05:17:55;96860.25;;;5.83;65.22
73024;BME280;72676;47.526;8.538;2023-12-28T05:20:23;96856.06;;;5.95;65.18
73024;BME280;72676;47.526;8.538;2023-12-28T05:22:49;96841.63;;;6.17;64.26
73024;BME280;72676;47.526;8.538;2023-12-28T05:25:16;96839.88;;;6.30;64.00
73024;BME280;72676;47.526;8.538;2023-12-28T05:27:42;96836.66;;;6.53;63.29
73024;BME280;72676;47.526;8.538;2023-12-28T05:30:09;96848.16;;;6.76;62.90
73024;BME280;72676;47.526;8.538;2023-12-28T05:32:37;96847.56;;;6.85;62.24
73024;BME280;72676;47.526;8.538;2023-12-28T05:35:04;96842.94;;;6.88;62.19
73024;BME280;72676;47.526;8.538;2023-12-28T05:37:31;96840.34;;;7.01;61.64
73024;BME280;72676;47.526;8.538;2023-12-28T05:39:57;96831.75;;;7.13;61.14
73024;BME280;72676;47.526;8.538;2023-12-28T05:42:24;96842.75;;;7.29;61.25
73024;BME280;72676;47.526;8.538;2023-12-28T05:44:51;96839.75;;;7.35;60.97
73024;BME280;72676;47.526;8.538;2023-12-28T05:47:17;96839.34;;;7.41;60.63
73024;BME280;72676;47.526;8.538;2023-12-28T05:49:44;96833.38;;;7.51;60.25
73024;BME280;72676;47.526;8.538;2023-12-28T05:52:11;96835.47;;;7.59;60.04
73024;BME280;72676;47.526;8.538;2023-12-28T05:54:41;96843.06;;;7.62;59.98
73024;BME280;72676;47.526;8.538;2023-12-28T05:57:10;96846.91;;;7.69;59.80
73024;BME280;72676;47.526;8.538;2023-12-28T05:59:39;96848.88;;;7.78;59.30
73024;BME280;72676;47.526;8.538;2023-12-28T06:02:08;96844.28;;;7.81;59.67
73024;BME280;72676;47.526;8.538;2023-12-28T06:04:35;96841.84;;;7.91;59.12
73024;BME280;72676;47.526;8.538;2023-12-28T06:07:03;96845.94;;;7.95;58.72
73024;BME280;72676;47.526;8.538;2023-12-28T06:09:30;96850.81;;;7.99;58.61
73024;BME280;72676;47.526;8.538;2023-12-28T06:11:57;96846.34;;;7.89;59.01
73024;BME280;72676;47.526;8.538;2023-12-28T06:14:23;96844.56;;;7.89;59.07
73024;BME280;72676;47.526;8.538;2023-12-28T06:16:50;96842.50;;;7.82;58.98
73024;BME280;72676;47.526;8.538;2023-12-28T06:19:16;96839.19;;;7.67;59.60
73024;BME280;72676;47.526;8.538;2023-12-28T06:21:43;96842.03;;;7.02;61.11
73024;BME280;72676;47.526;8.538;2023-12-28T06:24:09;96838.03;;;6.84;61.73
73024;BME280;72676;47.526;8.538;2023-12-28T06:26:42;96844.63;;;6.77;62.04
73024;BME280;72676;47.526;8.538;2023-12-28T06:29:09;96848.38;;;6.98;61.71
73024;BME280;72676;47.526;8.538;2023-12-28T06:31:36;96848.06;;;6.90;62.02
73024;BME280;72676;47.526;8.538;2023-12-28T06:34:03;96851.84;;;6.98;61.47
73024;BME280;72676;47.526;8.538;2023-12-28T06:36:30;96851.81;;;7.11;61.10
73024;BME280;72676;47.526;8.538;2023-12-28T06:38:58;96857.25;;;7.08;60.87
73024;BME280;72676;47.526;8.538;2023-12-28T06:41:25;96860.25;;;7.02;60.81
73024;BME280;72676;47.526;8.538;2023-12-28T06:43:52;96857.88;;;6.99;60.84
73024;BME280;72676;47.526;8.538;2023-12-28T06:46:19;96863.78;;;6.76;61.07
73024;BME280;72676;47.526;8.538;2023-12-28T06:48:46;96856.97;;;6.61;61.47
73024;BME280;72676;47.526;8.538;2023-12-28T06:51:20;96852.00;;;6.44;61.95
73024;BME280;72676;47.526;8.538;2023-12-28T06:53:48;96852.56;;;6.49;62.24
73024;BME280;72676;47.526;8.538;2023-12-28T06:56:15;96848.94;;;6.64;62.20
73024;BME280;72676;47.526;8.538;2023-12-28T06:58:42;96850.50;;;6.66;62.05
73024;BME280;72676;47.526;8.538;2023-12-28T07:01:08;96861.81;;;6.53;62.55
73024;BME280;72676;47.526;8.538;2023-12-28T07:03:35;96856.22;;;6.32;63.23
73024;BME280;72676;47.526;8.538;2023-12-28T07:06:02;96877.16;;;6.31;63.46
73024;BME280;72676;47.526;8.538;2023-12-28T07:08:29;96874.72;;;6.28;63.76
73024;BME280;72676;47.526;8.538;2023-12-28T07:11:01;96875.06;;;6.36;63.64
73024;BME280;72676;47.526;8.538;2023-12-28T07:13:28;96870.59;;;6.38;63.30
73024;BME280;72676;47.526;8.538;2023-12-28T07:15:55;96870.00;;;6.47;63.06
73024;BME280;72676;47.526;8.538;2023-12-28T07:18:25;96871.09;;;6.57;63.00
73024;BME280;72676;47.526;8.538;2023-12-28T07:20:52;96869.34;;;6.57;62.35
73024;BME280;72676;47.526;8.538;2023-12-28T07:23:18;96869.25;;;6.59;62.87
73024;BME280;72676;47.526;8.538;2023-12-28T07:25:45;96860.59;;;6.58;62.71
73024;BME280;72676;47.526;8.538;2023-12-28T07:28:12;96858.06;;;6.57;62.79
73024;BME280;72676;47.526;8.538;2023-12-28T07:30:39;96856.63;;;6.53;62.68
73024;BME280;72676;47.526;8.538;2023-12-28T07:33:06;96850.13;;;6.46;63.29
73024;BME280;72676;47.526;8.538;2023-12-28T07:35:32;96855.50;;;6.30;63.58
73024;BME280;72676;47.526;8.538;2023-12-28T07:37:59;96866.84;;;6.03;64.96
73024;BME280;72676;47.526;8.538;2023-12-28T07:40:26;96865.34;;;5.99;64.62
73024;BME280;72676;47.526;8.538;2023-12-28T07:42:52;96866.94;;;5.87;64.56
73024;BME280;72676;47.526;8.538;2023-12-28T07:45:19;96861.19;;;5.82;64.53
73024;BME280;72676;47.526;8.538;2023-12-28T07:47:50;96867.03;;;5.58;64.86
73024;BME280;72676;47.526;8.538;2023-12-28T07:50:18;96875.28;;;5.37;65.56
73024;BME280;72676;47.526;8.538;2023-12-28T07:52:45;96873.50;;;5.37;65.74
73024;BME280;72676;47.526;8.538;2023-12-28T07:55:15;96873.16;;;5.43;65.76
73024;BME280;72676;47.526;8.538;2023-12-28T07:57:43;96871.13;;;5.34;65.91
73024;BME280;72676;47.526;8.538;2023-12-28T08:00:10;96872.25;;;5.30;65.98
73024;BME280;72676;47.526;8.538;2023-12-28T08:02:37;96862.47;;;5.20;66.96
73024;BME280;72676;47.526;8.538;2023-12-28T08:05:04;96873.88;;;5.17;66.80
73024;BME280;72676;47.526;8.538;2023-12-28T08:07:31;96872.56;;;5.10;67.51
73024;BME280;72676;47.526;8.538;2023-12-28T08:09:58;96879.44;;;5.11;67.68
73024;BME280;72676;47.526;8.538;2023-12-28T08:12:24;96873.13;;;5.15;67.79
73024;BME280;72676;47.526;8.538;2023-12-28T08:14:54;96870.19;;;5.21;67.52
73024;BME280;72676;47.526;8.538;2023-12-28T08:17:21;96867.41;;;5.24;67.65
73024;BME280;72676;47.526;8.538;2023-12-28T08:19:47;96871.31;;;5.31;67.56
73024;BME280;72676;47.526;8.538;2023-12-28T08:22:14;96863.91;;;5.39;67.22
73024;BME280;72676;47.526;8.538;2023-12-28T08:24:40;96864.88;;;5.51;67.16
73024;BME280;72676;47.526;8.538;2023-12-28T08:27:07;96866.38;;;5.68;66.81
73024;BME280;72676;47.526;8.538;2023-12-28T08:29:34;96872.63;;;5.80;66.75
73024;BME280;72676;47.526;8.538;2023-12-28T08:32:00;96877.44;;;5.86;66.39
73024;BME280;72676;47.526;8.538;2023-12-28T08:34:27;96874.44;;;5.92;66.98
73024;BME280;72676;47.526;8.538;2023-12-28T08:36:54;96876.38;;;6.02;66.36
73024;BME280;72676;47.526;8.538;2023-12-28T08:39:21;96878.13;;;6.16;66.26
73024;BME280;72676;47.526;8.538;2023-12-28T08:41:47;96873.47;;;6.21;66.01
73024;BME280;72676;47.526;8.538;2023-12-28T08:44:14;96875.13;;;6.22;65.70
73024;BME280;72676;47.526;8.538;2023-12-28T08:46:40;96862.78;;;6.25;66.15
73024;BME280;72676;47.526;8.538;2023-12-28T08:49:06;96858.19;;;6.29;65.83
73024;BME280;72676;47.526;8.538;2023-12-28T08:51:33;96850.09;;;6.33;65.88
73024;BME280;72676;47.526;8.538;2023-12-28T08:54:00;96855.16;;;6.49;65.55
73024;BME280;72676;47.526;8.538;2023-12-28T08:56:26;96856.16;;;6.73;65.01
73024;BME280;72676;47.526;8.538;2023-12-28T08:58:52;96864.63;;;6.89;64.27
73024;BME280;72676;47.526;8.538;2023-12-28T09:01:21;96867.28;;;6.75;64.65
73024;BME280;72676;47.526;8.538;2023-12-28T09:03:49;96881.84;;;6.65;65.20
73024;BME280;72676;47.526;8.538;2023-12-28T09:06:19;96888.88;;;6.50;65.99
73024;BME280;72676;47.526;8.538;2023-12-28T09:08:50;96894.91;;;6.51;65.59
73024;BME280;72676;47.526;8.538;2023-12-28T09:11:17;96898.63;;;6.47;65.76
73024;BME280;72676;47.526;8.538;2023-12-28T09:13:44;96905.66;;;6.59;64.89
73024;BME280;72676;47.526;8.538;2023-12-28T09:16:12;96902.88;;;6.62;65.62
73024;BME280;72676;47.526;8.538;2023-12-28T09:18:40;96897.06;;;6.71;64.96
73024;BME280;72676;47.526;8.538;2023-12-28T09:21:08;96898.94;;;6.69;64.93
73024;BME280;72676;47.526;8.538;2023-12-28T09:23:35;96895.91;;;6.75;65.09
73024;BME280;72676;47.526;8.538;2023-12-28T09:26:03;96906.03;;;6.67;65.22
73024;BME280;72676;47.526;8.538;2023-12-28T09:28:33;96901.00;;;6.64;65.02
73024;BME280;72676;47.526;8.538;2023-12-28T09:31:01;96909.34;;;6.69;65.52
73024;BME280;72676;47.526;8.538;2023-12-28T09:33:28;96908.03;;;6.76;65.03
73024;BME280;72676;47.526;8.538;2023-12-28T09:35:55;96908.25;;;6.85;64.75
73024;BME280;72676;47.526;8.538;2023-12-28T09:38:22;96901.47;;;6.83;65.17
73024;BME280;72676;47.526;8.538;2023-12-28T09:40:52;96903.16;;;6.96;64.98
73024;BME280;72676;47.526;8.538;2023-12-28T09:43:28;96892.47;;;7.13;65.36
73024;BME280;72676;47.526;8.538;2023-12-28T09:45:56;96890.88;;;7.11;64.22
73024;BME280;72676;47.526;8.538;2023-12-28T09:48:23;96888.81;;;7.03;64.43
73024;BME280;72676;47.526;8.538;2023-12-28T09:50:51;96897.78;;;6.99;65.00
73024;BME280;72676;47.526;8.538;2023-12-28T09:53:23;96895.38;;;7.09;64.48
73024;BME280;72676;47.526;8.538;2023-12-28T09:55:50;96901.63;;;7.06;64.79
73024;BME280;72676;47.526;8.538;2023-12-28T09:58:21;96890.72;;;7.14;65.33
73024;BME280;72676;47.526;8.538;2023-12-28T10:00:50;96891.66;;;7.13;64.76
73024;BME280;72676;47.526;8.538;2023-12-28T10:03:17;96897.25;;;7.07;65.05
73024;BME280;72676;47.526;8.538;2023-12-28T10:05:45;96895.69;;;7.04;64.97
73024;BME280;72676;47.526;8.538;2023-12-28T10:08:15;96886.72;;;6.96;65.18
73024;BME280;72676;47.526;8.538;2023-12-28T10:10:43;96870.28;;;7.08;64.46
73024;BME280;72676;47.526;8.538;2023-12-28T10:13:17;96876.31;;;7.08;64.67
73024;BME280;72676;47.526;8.538;2023-12-28T10:15:43;96883.09;;;6.98;64.69
73024;BME280;72676;47.526;8.538;2023-12-28T10:18:10;96866.50;;;7.12;64.51
73024;BME280;72676;47.526;8.538;2023-12-28T10:20:37;96876.94;;;7.12;64.26
73024;BME280;72676;47.526;8.538;2023-12-28T10:23:04;96872.66;;;7.11;64.10
73024;BME280;72676;47.526;8.538;2023-12-28T10:25:32;96881.53;;;7.21;63.31
73024;BME280;72676;47.526;8.538;2023-12-28T10:28:04;96872.53;;;7.00;64.23
73024;BME280;72676;47.526;8.538;2023-12-28T10:30:30;96875.69;;;7.05;64.61
73024;BME280;72676;47.526;8.538;2023-12-28T10:32:58;96861.63;;;6.95;65.08
73024;BME280;72676;47.526;8.538;2023-12-28T10:35:25;96858.16;;;6.94;65.18
73024;BME280;72676;47.526;8.538;2023-12-28T10:37:52;96846.81;;;6.95;65.33
73024;BME280;72676;47.526;8.538;2023-12-28T10:40:22;96840.66;;;6.96;65.29
73024;BME280;72676;47.526;8.538;2023-12-28T10:42:58;96841.19;;;6.89;65.83
73024;BME280;72676;47.526;8.538;2023-12-28T10:45:34;96841.50;;;6.97;66.25
73024;BME280;72676;47.526;8.538;2023-12-28T10:48:10;96835.75;;;6.92;66.05
73024;BME280;72676;47.526;8.538;2023-12-28T10:50:42;96832.53;;;6.88;66.79
73024;BME280;72676;47.526;8.538;2023-12-28T10:53:30;96841.91;;;6.91;66.51
73024;BME280;72676;47.526;8.538;2023-12-28T10:58:49;96836.31;;;7.09;66.71
73024;BME280;72676;47.526;8.538;2023-12-28T11:01:22;96832.38;;;7.04;66.81
73024;BME280;72676;47.526;8.538;2023-12-28T11:03:57;96835.06;;;7.15;66.77
73024;BME280;72676;47.526;8.538;2023-12-28T11:06:25;96842.34;;;7.35;66.24
73024;BME280;72676;47.526;8.538;2023-12-28T11:08:53;96841.50;;;7.47;65.31
73024;BME280;72676;47.526;8.538;2023-12-28T11:11:21;96832.31;;;7.66;65.33
73024;BME280;72676;47.526;8.538;2023-12-28T11:13:48;96840.22;;;7.77;64.45
73024;BME280;72676;47.526;8.538;2023-12-28T11:16:18;96842.53;;;7.69;64.62
73024;BME280;72676;47.526;8.538;2023-12-28T11:18:46;96841.25;;;7.75;64.80
73024;BME280;72676;47.526;8.538;2023-12-28T11:21:15;96838.75;;;7.86;64.46
73024;BME280;72676;47.526;8.538;2023-12-28T11:23:42;96833.38;;;8.00;63.82
73024;BME280;72676;47.526;8.538;2023-12-28T11:26:20;96831.09;;;7.95;64.77
73024;BME280;72676;47.526;8.538;2023-12-28T11:28:47;96826.72;;;7.96;65.24
73024;BME280;72676;47.526;8.538;2023-12-28T11:31:14;96832.25;;;8.04;64.93
73024;BME280;72676;47.526;8.538;2023-12-28T11:33:46;96838.47;;;8.14;64.41
73024;BME280;72676;47.526;8.538;2023-12-28T11:36:22;96835.72;;;8.28;64.65
73024;BME280;72676;47.526;8.538;2023-12-28T11:38:53;96836.72;;;8.38;64.76
73024;BME280;72676;47.526;8.538;2023-12-28T11:41:21;96832.63;;;8.46;64.63
73024;BME280;72676;47.526;8.538;2023-12-28T11:43:54;96830.31;;;8.31;65.52
73024;BME280;72676;47.526;8.538;2023-12-28T11:46:21;96830.06;;;8.34;65.59
73024;BME280;72676;47.526;8.538;2023-12-28T11:48:48;96835.72;;;8.28;66.22
73024;BME280;72676;47.526;8.538;2023-12-28T11:51:15;96833.38;;;8.36;66.52
73024;BME280;72676;47.526;8.538;2023-12-28T11:53:45;96827.78;;;8.29;66.74
73024;BME280;72676;47.526;8.538;2023-12-28T11:56:15;96824.66;;;8.48;66.25
73024;BME280;72676;47.526;8.538;2023-12-28T11:58:42;96822.03;;;8.71;65.85
73024;BME280;72676;47.526;8.538;2023-12-28T12:01:12;96821.25;;;8.81;65.74
73024;BME280;72676;47.526;8.538;2023-12-28T12:03:39;96815.09;;;8.93;65.51
73024;BME280;72676;47.526;8.538;2023-12-28T12:06:06;96813.44;;;8.92;65.42
73024;BME280;72676;47.526;8.538;2023-12-28T12:08:33;96809.38;;;8.77;65.94
73024;BME280;72676;47.526;8.538;2023-12-28T12:11:05;96809.56;;;8.74;66.15
73024;BME280;72676;47.526;8.538;2023-12-28T12:13:31;96809.16;;;8.57;66.48
73024;BME280;72676;47.526;8.538;2023-12-28T12:15:58;96800.00;;;8.52;66.86
73024;BME280;72676;47.526;8.538;2023-12-28T12:18:25;96791.94;;;8.55;67.14
73024;BME280;72676;47.526;8.538;2023-12-28T12:20:52;96795.50;;;8.54;66.99
73024;BME280;72676;47.526;8.538;2023-12-28T12:23:19;96806.78;;;8.54;67.23
73024;BME280;72676;47.526;8.538;2023-12-28T12:25:46;96807.13;;;8.50;67.57
73024;BME280;72676;47.526;8.538;2023-12-28T12:28:13;96807.84;;;8.52;67.83
73024;BME280;72676;47.526;8.538;2023-12-28T12:30:52;96807.47;;;8.45;67.56
73024;BME280;72676;47.526;8.538;2023-12-28T12:33:20;96806.91;;;8.29;68.53
73024;BME280;72676;47.526;8.538;2023-12-28T12:35:47;96815.13;;;8.36;68.43
73024;BME280;72676;47.526;8.538;2023-12-28T12:38:13;96806.69;;;8.32;68.41
73024;BME280;72676;47.526;8.538;2023-12-28T12:40:40;96809.47;;;8.42;68.26
73024;BME280;72676;47.526;8.538;2023-12-28T12:43:07;96819.25;;;8.51;67.98
73024;BME280;72676;47.526;8.538;2023-12-28T12:45:35;96819.72;;;8.56;67.85
73024;BME280;72676;47.526;8.538;2023-12-28T12:48:03;96814.50;;;8.56;67.71
73024;BME280;72676;47.526;8.538;2023-12-28T12:50:31;96814.50;;;8.56;68.09
73024;BME280;72676;47.526;8.538;2023-12-28T12:53:01;96818.75;;;8.57;68.17
73024;BME280;72676;47.526;8.538;2023-12-28T12:55:29;96829.34;;;8.55;68.00
73024;BME280;72676;47.526;8.538;2023-12-28T12:57:55;96827.06;;;8.51;68.20
73024;BME280;72676;47.526;8.538;2023-12-28T13:00:23;96823.22;;;8.44;68.33
73024;BME280;72676;47.526;8.538;2023-12-28T13:02:50;96818.72;;;8.46;68.21
73024;BME280;72676;47.526;8.538;2023-12-28T13:05:23;96827.94;;;8.39;68.48
73024;BME280;72676;47.526;8.538;2023-12-28T13:07:50;96817.78;;;8.47;68.63
73024;BME280;72676;47.526;8.538;2023-12-28T13:10:17;96830.06;;;8.34;68.94
73024;BME280;72676;47.526;8.538;2023-12-28T13:12:43;96829.22;;;8.33;68.60
73024;BME280;72676;47.526;8.538;2023-12-28T13:15:09;96828.41;;;8.33;69.13